createdAt,value
2022-08-26T00:01:02.083Z,21.3
2022-08-26T00:03:04.226Z,21.3
2022-08-26T00:05:06.273Z,21.3
2022-08-26T00:06:08.925Z,21.2
2022-08-26T00:08:11.025Z,21.3
2022-08-26T00:10:13.124Z,21.3
2022-08-26T00:12:15.211Z,21.2
2022-08-26T00:14:20.493Z,21.3
2022-08-26T00:16:22.716Z,21.4
2022-08-26T00:18:24.701Z,21.4
2022-08-26T00:20:26.800Z,21.4
2022-08-26T00:22:28.924Z,21.2
2022-08-26T00:24:30.988Z,21.3
2022-08-26T00:26:33.110Z,21.4
2022-08-26T00:28:38.391Z,21.2
2022-08-26T00:30:40.482Z,21.3
2022-08-26T00:32:44.089Z,21.2
2022-08-26T00:34:44.675Z,21.2
2022-08-26T00:36:46.809Z,21.3
2022-08-26T00:38:48.899Z,21.3
2022-08-26T00:40:51.013Z,21.1
2022-08-26T00:44:58.361Z,21.1
2022-08-26T00:47:00.470Z,21.2
2022-08-26T00:49:02.574Z,21.2
2022-08-26T00:51:04.673Z,21.3
2022-08-26T00:53:06.877Z,21.3
2022-08-26T00:55:08.882Z,21.3
2022-08-26T00:57:16.215Z,21.3
2022-08-26T00:59:17.653Z,21.3
2022-08-26T01:01:18.446Z,21.3
2022-08-26T01:02:21.654Z,21.3
2022-08-26T01:04:23.095Z,21.2
2022-08-26T01:10:32.535Z,21.3
2022-08-26T01:12:34.649Z,21.4
2022-08-26T01:14:36.858Z,21.4
2022-08-26T01:16:38.874Z,21.4
2022-08-26T01:24:50.407Z,21.3
2022-08-26T01:26:52.489Z,21.4
2022-08-26T01:28:54.578Z,21.3
2022-08-26T01:30:56.696Z,21.3
2022-08-26T01:35:00.895Z,21.2
2022-08-26T01:37:03.037Z,21.3
2022-08-26T01:39:09.790Z,21.3
2022-08-26T01:41:16.344Z,21.2
2022-08-26T01:43:13.957Z,21.2
2022-08-26T01:45:16.072Z,21.2
2022-08-26T01:47:18.176Z,21.2
2022-08-26T01:49:20.271Z,21.2
2022-08-26T01:51:22.359Z,21.1
2022-08-26T01:53:27.628Z,21.2
2022-08-26T01:55:32.911Z,21.1
2022-08-26T01:57:31.827Z,21.1
2022-08-26T01:58:34.444Z,21.1
2022-08-26T02:00:36.603Z,21
2022-08-26T02:04:40.853Z,21
2022-08-26T02:08:48.120Z,21
2022-08-26T02:14:54.423Z,21
2022-08-26T02:18:58.617Z,20.7
2022-08-26T02:23:06.127Z,20.7
2022-08-26T02:25:08.112Z,20.5
2022-08-26T02:27:10.205Z,20.6
2022-08-26T02:31:14.449Z,20.5
2022-08-26T02:33:16.520Z,20.6
2022-08-26T02:37:23.880Z,20.5
2022-08-26T02:39:25.987Z,20.5
2022-08-26T02:41:28.083Z,20.4
2022-08-26T02:47:34.418Z,20.5
2022-08-26T02:49:39.661Z,20.3
2022-08-26T02:53:43.883Z,20.4
2022-08-26T02:56:12.556Z,20.3
2022-08-26T02:58:14.655Z,20.2
2022-08-26T03:02:22.097Z,20.2
2022-08-26T03:04:25.948Z,20.2
2022-08-26T03:06:26.261Z,20.2
2022-08-26T03:08:28.457Z,20.2
2022-08-26T03:10:30.465Z,20.3
2022-08-26T03:12:32.564Z,20.1
2022-08-26T03:14:34.708Z,20.2
2022-08-26T03:16:39.932Z,20.3
2022-08-26T03:18:42.049Z,20.3
2022-08-26T03:20:44.161Z,20.4
2022-08-26T03:22:46.255Z,20.2
2022-08-26T03:24:48.373Z,20.3
2022-08-26T03:26:52.029Z,20.3
2022-08-26T03:30:57.741Z,20.3
2022-08-26T03:32:59.804Z,20.2
2022-08-26T03:35:01.895Z,20.2
2022-08-26T03:37:04.019Z,20.2
2022-08-26T03:39:06.120Z,20.2
2022-08-26T03:41:08.229Z,20.2
2022-08-26T03:43:10.446Z,20.2
2022-08-26T03:45:15.588Z,20.2
2022-08-26T03:47:17.694Z,20.1
2022-08-26T03:49:19.792Z,20.1
2022-08-26T03:52:24.536Z,20.2
2022-08-26T03:58:34.009Z,20.2
2022-08-26T04:06:42.431Z,20
2022-08-26T04:08:44.531Z,20.1
2022-08-26T04:10:46.638Z,20.1
2022-08-26T04:14:54.056Z,20
2022-08-26T04:16:56.200Z,20
2022-08-26T04:18:58.341Z,20
2022-08-26T04:21:00.582Z,20
2022-08-26T04:23:02.614Z,20.1
2022-08-26T04:25:04.659Z,20.1
2022-08-26T04:27:09.926Z,20.1
2022-08-26T04:29:12.032Z,20.2
2022-08-26T04:31:14.182Z,20.1
2022-08-26T04:33:16.226Z,20.1
2022-08-26T04:35:20.859Z,20.1
2022-08-26T04:37:20.445Z,20.2
2022-08-26T04:39:22.547Z,20.1
2022-08-26T04:41:27.840Z,20.1
2022-08-26T04:43:29.914Z,20.1
2022-08-26T04:45:32.053Z,20.2
2022-08-26T04:46:34.738Z,20.2
2022-08-26T04:48:36.772Z,20.1
2022-08-26T04:50:38.899Z,20.1
2022-08-26T04:52:41.002Z,20.1
2022-08-26T04:54:46.261Z,20.2
2022-08-26T04:56:48.363Z,20.1
2022-08-26T05:02:54.715Z,20.2
2022-08-26T05:04:56.827Z,20.3
2022-08-26T05:09:04.192Z,20.4
2022-08-26T05:11:06.314Z,20.4
2022-08-26T05:13:10.989Z,20.4
2022-08-26T05:15:10.534Z,20.3
2022-08-26T05:17:14.916Z,20.3
2022-08-26T05:19:14.744Z,20.4
2022-08-26T05:21:16.844Z,20.4
2022-08-26T05:23:22.110Z,20.4
2022-08-26T05:25:24.213Z,20.4
2022-08-26T05:27:26.415Z,20.4
2022-08-26T05:29:28.476Z,20.5
2022-08-26T05:35:34.765Z,20.5
2022-08-26T05:41:44.876Z,20.5
2022-08-26T05:42:46.878Z,20.5
2022-08-26T05:44:54.045Z,20.4
2022-08-26T05:46:51.225Z,20.6
2022-08-26T05:48:53.198Z,20.6
2022-08-26T05:50:58.492Z,20.5
2022-08-26T05:53:00.595Z,20.5
2022-08-26T05:57:04.816Z,20.6
2022-08-26T05:59:08.126Z,20.6
2022-08-26T06:07:18.555Z,20.6
2022-08-26T06:09:20.600Z,20.6
2022-08-26T06:11:22.736Z,20.7
2022-08-26T06:13:24.891Z,20.7
2022-08-26T06:15:26.926Z,20.6
2022-08-26T06:17:29.015Z,20.6
2022-08-26T06:19:34.584Z,20.7
2022-08-26T06:21:36.397Z,20.6
2022-08-26T06:23:38.519Z,20.7
2022-08-26T06:25:40.622Z,20.7
2022-08-26T06:29:44.815Z,20.7
2022-08-26T06:35:54.290Z,20.6
2022-08-26T06:37:56.417Z,20.7
2022-08-26T06:40:25.154Z,20.8
2022-08-26T06:42:27.161Z,20.8
2022-08-26T06:44:29.279Z,20.7
2022-08-26T06:46:34.665Z,20.8
2022-08-26T06:48:36.603Z,20.7
2022-08-26T06:50:38.732Z,20.8
2022-08-26T06:52:40.918Z,20.8
2022-08-26T06:54:42.908Z,20.8
2022-08-26T06:56:45.025Z,21
2022-08-26T06:58:47.121Z,21
2022-08-26T07:00:52.379Z,21.1
2022-08-26T07:02:54.534Z,21
2022-08-26T07:04:56.787Z,21.2
2022-08-26T07:06:58.712Z,21.3
2022-08-26T07:09:00.804Z,21.1
2022-08-26T07:11:02.894Z,21.2
2022-08-26T07:13:06.023Z,21.3
2022-08-26T07:15:10.275Z,21.5
2022-08-26T07:17:14.236Z,21.3
2022-08-26T07:19:14.482Z,21.4
2022-08-26T07:21:16.566Z,21.4
2022-08-26T07:23:18.658Z,21.4
2022-08-26T07:25:20.779Z,21.5
2022-08-26T07:27:22.859Z,21.6
2022-08-26T07:29:28.625Z,21.5
2022-08-26T07:31:33.576Z,21.5
2022-08-26T07:33:32.768Z,21.7
2022-08-26T07:34:35.415Z,21.6
2022-08-26T07:36:37.518Z,21.5
2022-08-26T07:38:39.597Z,21.7
2022-08-26T07:42:46.941Z,21.7
2022-08-26T07:44:49.122Z,21.8
2022-08-26T07:46:53.293Z,21.5
2022-08-26T07:48:53.257Z,21.7
2022-08-26T07:54:59.512Z,21.8
2022-08-26T08:03:11.068Z,21.8
2022-08-26T08:05:13.203Z,21.8
2022-08-26T08:07:15.245Z,22.2
2022-08-26T08:09:17.343Z,22.1
2022-08-26T08:19:36.722Z,22.4
2022-08-26T08:23:35.150Z,22.2
2022-08-26T08:27:42.502Z,22
2022-08-26T08:30:47.244Z,22
2022-08-26T08:32:49.285Z,21.8
2022-08-26T08:34:51.502Z,22
2022-08-26T08:36:53.805Z,21.8
2022-08-26T08:38:58.732Z,21.8
2022-08-26T08:41:00.795Z,21.9
2022-08-26T08:43:02.882Z,21.7
2022-08-26T08:45:04.980Z,21.7
2022-08-26T08:47:07.065Z,21.5
2022-08-26T08:49:09.143Z,21.6
2022-08-26T08:51:11.219Z,21.6
2022-08-26T08:53:16.501Z,21.6
2022-08-26T08:57:20.675Z,21.8
2022-08-26T09:03:26.927Z,21.9
2022-08-26T09:05:29.008Z,21.8
2022-08-26T09:07:36.735Z,21.8
2022-08-26T09:09:36.367Z,21.7
2022-08-26T09:11:38.444Z,21.8
2022-08-26T09:13:40.527Z,21.7
2022-08-26T09:15:42.621Z,21.8
2022-08-26T09:17:44.704Z,21.7
2022-08-26T09:19:46.794Z,21.5
2022-08-26T09:21:53.478Z,21.5
2022-08-26T09:23:54.147Z,21.7
2022-08-26T09:25:56.259Z,21.7
2022-08-26T09:26:58.909Z,21.7
2022-08-26T09:29:00.973Z,21.8
2022-08-26T09:31:03.556Z,21.9
2022-08-26T09:33:06.612Z,22
2022-08-26T09:35:10.410Z,22.3
2022-08-26T09:37:12.485Z,22.1
2022-08-26T09:39:14.661Z,21.9
2022-08-26T09:41:16.694Z,22.1
2022-08-26T09:43:22.595Z,22.3
2022-08-26T09:45:20.862Z,22.1
2022-08-26T09:47:23.179Z,22
2022-08-26T09:49:29.896Z,22.1
2022-08-26T09:51:30.291Z,22.2
2022-08-26T09:53:32.385Z,22
2022-08-26T09:55:34.465Z,21.9
2022-08-26T09:57:36.720Z,21.9
2022-08-26T09:59:38.661Z,22
2022-08-26T10:01:40.983Z,21.9
2022-08-26T10:03:47.083Z,21.7
2022-08-26T10:05:48.109Z,21.7
2022-08-26T10:07:50.192Z,21.8
2022-08-26T10:09:52.302Z,21.7
2022-08-26T10:11:54.384Z,21.8
2022-08-26T10:13:56.475Z,21.8
2022-08-26T10:15:58.551Z,21.9
2022-08-26T10:18:03.867Z,22.1
2022-08-26T10:20:05.903Z,22.1
2022-08-26T10:22:08.010Z,22.1
2022-08-26T10:24:36.632Z,22.2
2022-08-26T10:26:38.749Z,22.3
2022-08-26T10:28:40.834Z,22.3
2022-08-26T10:30:46.101Z,22.5
2022-08-26T10:32:48.181Z,22.6
2022-08-26T10:34:50.266Z,22.6
2022-08-26T10:37:13.487Z,22.6
2022-08-26T10:38:54.425Z,22.6
2022-08-26T10:40:56.530Z,22.5
2022-08-26T10:42:58.617Z,22.6
2022-08-26T10:45:03.860Z,22.7
2022-08-26T10:47:05.944Z,22.8
2022-08-26T10:49:08.024Z,22.6
2022-08-26T10:51:10.110Z,22.3
2022-08-26T10:53:12.208Z,22.3
2022-08-26T10:57:16.372Z,22.7
2022-08-26T11:01:23.738Z,22.6
2022-08-26T11:07:29.944Z,22.6
2022-08-26T11:09:32.033Z,22.6
2022-08-26T11:11:34.147Z,22.6
2022-08-26T11:13:41.604Z,22.5
2022-08-26T11:15:41.493Z,22.6
2022-08-26T11:17:43.622Z,22.5
2022-08-26T11:18:46.177Z,22.5
2022-08-26T11:20:48.264Z,22.4
2022-08-26T11:24:52.450Z,22.5
2022-08-26T11:28:59.785Z,22.6
2022-08-26T11:35:06.049Z,22.2
2022-08-26T11:37:08.164Z,22.4
2022-08-26T11:39:10.318Z,22.6
2022-08-26T11:43:17.541Z,22.3
2022-08-26T11:45:19.614Z,22.5
2022-08-26T11:47:21.727Z,22.4
2022-08-26T11:49:23.794Z,22.4
2022-08-26T11:51:25.903Z,22.3
2022-08-26T11:53:27.958Z,22.2
2022-08-26T11:57:35.258Z,22.5
2022-08-26T12:01:39.427Z,22.7
2022-08-26T12:03:41.682Z,22.4
2022-08-26T12:07:45.663Z,22.4
2022-08-26T12:09:50.938Z,22.5
2022-08-26T12:11:53.008Z,22.4
2022-08-26T12:13:55.085Z,22.4
2022-08-26T12:14:57.713Z,22.4
2022-08-26T12:16:59.793Z,22.4
2022-08-26T12:19:01.864Z,22.3
2022-08-26T12:21:03.967Z,22.5
2022-08-26T12:23:09.214Z,22.6
2022-08-26T12:25:11.301Z,22.7
2022-08-26T12:27:13.395Z,22.5
2022-08-26T12:29:26.533Z,22.6
2022-08-26T12:31:17.642Z,22.6
2022-08-26T12:33:23.082Z,22.6
2022-08-26T12:35:21.697Z,22.5
2022-08-26T12:37:26.963Z,22.3
2022-08-26T12:39:29.033Z,22.3
2022-08-26T12:43:33.207Z,22.1
2022-08-26T12:47:42.925Z,21.8
2022-08-26T12:49:39.516Z,21.7
2022-08-26T12:51:44.722Z,21.7
2022-08-26T12:53:46.856Z,21.8
2022-08-26T12:55:48.976Z,21.7
2022-08-26T12:57:50.983Z,21.7
2022-08-26T12:59:53.145Z,21.7
2022-08-26T13:01:55.398Z,22
2022-08-26T13:06:02.528Z,22
2022-08-26T13:08:04.605Z,22
2022-08-26T13:10:06.731Z,21.8
2022-08-26T13:11:09.370Z,21.8
2022-08-26T13:15:13.501Z,21.6
2022-08-26T13:17:15.591Z,21.5
2022-08-26T13:19:20.889Z,21.8
2022-08-26T13:21:24.549Z,21.7
2022-08-26T13:23:26.603Z,21.9
2022-08-26T13:25:28.682Z,22
2022-08-26T13:27:30.777Z,21.9
2022-08-26T13:29:32.870Z,21.9
2022-08-26T13:31:34.978Z,22.2
2022-08-26T13:33:40.184Z,21.9
2022-08-26T13:35:42.336Z,21.8
2022-08-26T13:37:44.488Z,21.9
2022-08-26T13:39:46.455Z,21.9
2022-08-26T13:41:48.596Z,21.9
2022-08-26T13:43:50.652Z,21.8
2022-08-26T13:50:00.168Z,22.1
2022-08-26T13:54:04.294Z,22.3
2022-08-26T13:56:10.853Z,22.3
2022-08-26T13:58:08.524Z,22.3
2022-08-26T14:00:11.065Z,22.2
2022-08-26T14:02:15.780Z,22.3
2022-08-26T14:04:17.871Z,22.2
2022-08-26T14:06:19.976Z,22.4
2022-08-26T14:08:48.639Z,22.2
2022-08-26T14:10:50.722Z,22.2
2022-08-26T14:12:52.756Z,22
2022-08-26T14:14:58.113Z,22.2
2022-08-26T14:17:00.645Z,22.1
2022-08-26T14:19:02.383Z,22.1
2022-08-26T14:21:04.284Z,22.1
2022-08-26T14:23:14.443Z,22.3
2022-08-26T14:25:08.544Z,22.1
2022-08-26T14:27:10.639Z,22
2022-08-26T14:29:16.817Z,21.8
2022-08-26T14:31:17.967Z,21.7
2022-08-26T14:33:20.018Z,21.5
2022-08-26T14:35:22.132Z,21.3
2022-08-26T14:37:24.173Z,21.4
2022-08-26T14:39:26.264Z,21.4
2022-08-26T14:43:33.641Z,21.5
2022-08-26T14:45:35.823Z,21.4
2022-08-26T14:49:39.969Z,21.5
2022-08-26T14:51:42.012Z,21.4
2022-08-26T14:53:44.103Z,21.4
2022-08-26T14:55:46.198Z,21.4
2022-08-26T14:59:53.512Z,21.6
2022-08-26T15:01:55.654Z,21.4
2022-08-26T15:02:58.581Z,21.3
2022-08-26T15:05:00.373Z,21.4
2022-08-26T15:07:02.471Z,21.3
2022-08-26T15:09:04.531Z,21.4
2022-08-26T15:11:09.839Z,21.4
2022-08-26T15:13:11.936Z,21.4
2022-08-26T15:15:14.135Z,21.2
2022-08-26T15:17:16.134Z,21.3
2022-08-26T15:19:18.178Z,21.2
2022-08-26T15:21:20.291Z,21.3
2022-08-26T15:23:22.390Z,21.4
2022-08-26T15:25:27.645Z,21.3
2022-08-26T15:27:29.780Z,21.3
2022-08-26T15:29:31.838Z,21.4
2022-08-26T15:31:34.091Z,21.3
2022-08-26T15:33:36.152Z,21.4
2022-08-26T15:37:40.274Z,21.4
2022-08-26T15:39:45.542Z,21.4
2022-08-26T15:41:47.616Z,21.4
2022-08-26T15:43:49.708Z,21.5
2022-08-26T15:45:51.828Z,21.6
2022-08-26T15:48:01.185Z,21.6
2022-08-26T15:49:55.993Z,21.5
2022-08-26T15:51:58.123Z,21.2
2022-08-26T15:54:03.385Z,21.3
2022-08-26T15:56:05.503Z,21.2
2022-08-26T15:58:07.832Z,21.3
2022-08-26T15:59:10.240Z,21.2
2022-08-26T16:03:14.408Z,21.2
2022-08-26T16:05:16.510Z,21.1
2022-08-26T16:07:21.813Z,21.2
2022-08-26T16:09:24.467Z,21.2
2022-08-26T16:11:25.970Z,21.2
2022-08-26T16:13:33.905Z,21.3
2022-08-26T16:15:30.177Z,21.4
2022-08-26T16:17:32.307Z,21.4
2022-08-26T16:19:34.387Z,21.4
2022-08-26T16:21:39.678Z,21.3
2022-08-26T16:23:43.162Z,21.1
2022-08-26T16:25:43.885Z,21.1
2022-08-26T16:27:45.987Z,21.2
2022-08-26T16:29:48.172Z,21.2
2022-08-26T16:31:50.196Z,21.2
2022-08-26T16:33:52.249Z,21.3
2022-08-26T16:35:57.519Z,21.3
2022-08-26T16:37:59.647Z,21.2
2022-08-26T16:40:02.119Z,21.3
2022-08-26T16:42:03.838Z,21.5
2022-08-26T16:44:05.921Z,21.5
2022-08-26T16:46:08.125Z,21.4
2022-08-26T16:48:10.408Z,21.2
2022-08-26T16:50:15.434Z,21.2
2022-08-26T16:52:17.621Z,21.2
2022-08-26T16:54:19.689Z,21
2022-08-26T16:55:22.249Z,20.9
2022-08-26T16:57:24.359Z,20.7
2022-08-26T16:59:26.431Z,20.7
2022-08-26T17:01:28.708Z,20.6
2022-08-26T17:07:38.032Z,20.7
2022-08-26T17:13:44.320Z,20.7
2022-08-26T17:15:46.434Z,20.6
2022-08-26T17:17:51.715Z,20.8
2022-08-26T17:19:53.810Z,20.7
2022-08-26T17:21:55.963Z,20.6
2022-08-26T17:23:57.989Z,20.4
2022-08-26T17:26:00.122Z,20.4
2022-08-26T17:28:02.207Z,20.4
2022-08-26T17:30:04.363Z,20.5
2022-08-26T17:32:09.608Z,20.5
2022-08-26T17:34:11.773Z,20.4
2022-08-26T17:36:13.843Z,20.4
2022-08-26T17:38:15.905Z,20.4
2022-08-26T17:40:18.051Z,20.4
2022-08-26T17:42:20.120Z,20.3
2022-08-26T17:44:22.217Z,20.3
2022-08-26T17:46:27.630Z,20.2
2022-08-26T17:48:29.589Z,20.2
2022-08-26T17:50:31.688Z,20.2
2022-08-26T17:53:00.348Z,20.2
2022-08-26T17:55:02.480Z,20.1
2022-08-26T17:57:04.595Z,20.1
2022-08-26T17:59:09.871Z,20.2
2022-08-26T18:01:12.031Z,20.1
2022-08-26T18:03:14.112Z,20
2022-08-26T18:05:16.185Z,20
2022-08-26T18:07:18.286Z,20.1
2022-08-26T18:09:20.448Z,20
2022-08-26T18:11:22.544Z,20
2022-08-26T18:13:27.791Z,19.9
2022-08-26T18:15:30.067Z,19.8
2022-08-26T18:17:32.020Z,19.8
2022-08-26T18:19:34.209Z,19.8
2022-08-26T18:21:36.285Z,19.8
2022-08-26T18:23:38.337Z,19.9
2022-08-26T18:27:45.786Z,19.7
2022-08-26T18:33:52.166Z,19.7
2022-08-26T18:35:54.174Z,19.6
2022-08-26T18:39:58.442Z,19.6
2022-08-26T18:42:03.680Z,19.7
2022-08-26T18:44:06.198Z,19.7
2022-08-26T18:46:07.982Z,19.5
2022-08-26T18:47:10.581Z,19.6
2022-08-26T18:49:12.669Z,19.4
2022-08-26T18:51:14.779Z,19.6
2022-08-26T18:53:16.917Z,19.6
2022-08-26T18:55:22.176Z,19.5
2022-08-26T18:57:24.276Z,19.5
2022-08-26T19:05:32.755Z,19.3
2022-08-26T19:11:42.980Z,19.3
2022-08-26T19:17:50.184Z,19.4
2022-08-26T19:19:52.254Z,19.3
2022-08-26T19:21:54.350Z,19.3
2022-08-26T19:23:59.645Z,19.4
2022-08-26T19:26:01.892Z,19.4
2022-08-26T19:28:03.910Z,19.4
2022-08-26T19:30:05.985Z,19.4
2022-08-26T19:32:08.106Z,19.3
2022-08-26T19:34:10.199Z,19.3
2022-08-26T19:36:14.796Z,19.2
2022-08-26T19:38:17.677Z,19.1
2022-08-26T19:40:19.810Z,19.2
2022-08-26T19:42:21.815Z,19.2
2022-08-26T19:43:24.456Z,19.1
2022-08-26T19:47:28.715Z,19.1
2022-08-26T19:49:30.803Z,19.3
2022-08-26T19:51:36.076Z,19.1
2022-08-26T19:53:38.180Z,19.2
2022-08-26T19:57:42.471Z,19.2
2022-08-26T19:59:44.534Z,19.1
2022-08-26T20:01:46.647Z,19.1
2022-08-26T20:05:54.027Z,19
2022-08-26T20:12:00.473Z,19
2022-08-26T20:14:02.542Z,19
2022-08-26T20:16:04.737Z,19.1
2022-08-26T20:18:06.774Z,19.1
2022-08-26T20:20:14.765Z,18.9
2022-08-26T20:22:14.131Z,19
2022-08-26T20:24:16.251Z,19
2022-08-26T20:26:18.319Z,19.1
2022-08-26T20:30:22.579Z,19
2022-08-26T20:32:24.659Z,19
2022-08-26T20:36:32.080Z,18.9
2022-08-26T20:38:34.181Z,18.9
2022-08-26T20:39:36.860Z,19
2022-08-26T20:45:43.279Z,18.8
2022-08-26T20:47:48.502Z,18.8
2022-08-26T20:51:52.701Z,18.8
2022-08-26T21:00:02.217Z,18.8
2022-08-26T21:06:11.729Z,18.7
2022-08-26T21:08:13.805Z,18.6
2022-08-26T21:10:15.950Z,18.6
2022-08-26T21:12:18.055Z,18.8
2022-08-26T21:14:20.255Z,18.7
2022-08-26T21:16:25.467Z,18.8
2022-08-26T21:18:27.547Z,18.8
2022-08-26T21:24:33.912Z,18.6
2022-08-26T21:26:35.996Z,18.5
2022-08-26T21:28:38.228Z,18.6
2022-08-26T21:30:43.416Z,18.5
2022-08-26T21:32:45.515Z,18.4
2022-08-26T21:34:47.649Z,18.4
2022-08-26T21:37:16.625Z,18.4
2022-08-26T21:39:18.456Z,18.4
2022-08-26T21:41:20.575Z,18.4
2022-08-26T21:43:34.865Z,18.4
2022-08-26T21:45:28.063Z,18.5
2022-08-26T21:47:30.081Z,18.4
2022-08-26T21:49:32.214Z,18.3
2022-08-26T21:51:34.334Z,18.4
2022-08-26T21:53:36.453Z,18.3
2022-08-26T21:55:38.584Z,18.4
2022-08-26T21:57:43.824Z,18.2
2022-08-26T21:59:45.929Z,18.2
2022-08-26T22:01:48.166Z,18.3
2022-08-26T22:03:50.176Z,18.3
2022-08-26T22:05:52.284Z,18.2
2022-08-26T22:07:54.448Z,18.3
2022-08-26T22:09:56.519Z,18.3
2022-08-26T22:14:03.928Z,18.1
2022-08-26T22:16:06.182Z,18
2022-08-26T22:18:08.418Z,18.2
2022-08-26T22:20:16.379Z,18
2022-08-26T22:22:12.392Z,18.1
2022-08-26T22:24:14.501Z,18
2022-08-26T22:26:25.265Z,18
2022-08-26T22:28:21.960Z,18
2022-08-26T22:30:24.195Z,18
2022-08-26T22:33:28.811Z,18
2022-08-26T22:35:30.900Z,17.9
2022-08-26T22:37:33.011Z,17.8
2022-08-26T22:39:38.326Z,17.7
2022-08-26T22:41:40.415Z,17.7
2022-08-26T22:43:42.548Z,17.6
2022-08-26T22:45:44.743Z,17.7
2022-08-26T22:47:46.831Z,17.6
2022-08-26T22:49:48.919Z,17.5
2022-08-26T22:53:56.339Z,17.3
2022-08-26T23:00:02.718Z,17.3
2022-08-26T23:02:04.827Z,17.2
2022-08-26T23:04:06.942Z,17.2
2022-08-26T23:08:14.312Z,17.1
2022-08-26T23:10:16.443Z,17
2022-08-26T23:12:18.555Z,17
2022-08-26T23:14:20.685Z,16.9
2022-08-26T23:16:22.765Z,16.9
2022-08-26T23:18:24.866Z,16.9
2022-08-26T23:24:34.406Z,16.8
2022-08-26T23:26:36.513Z,16.8
2022-08-26T23:27:39.171Z,16.7
2022-08-26T23:29:41.304Z,16.7
2022-08-26T23:33:45.515Z,16.8
2022-08-26T23:35:50.767Z,16.7
2022-08-26T23:37:52.915Z,16.7
2022-08-26T23:39:55.091Z,16.6
2022-08-26T23:41:57.165Z,16.7
2022-08-26T23:44:03.254Z,16.8
2022-08-26T23:46:01.479Z,16.7
2022-08-26T23:50:08.753Z,16.7
2022-08-26T23:52:10.893Z,16.7
2022-08-26T23:54:12.997Z,16.9
2022-08-26T23:56:15.140Z,16.8
2022-08-26T23:58:17.290Z,16.9
